Time;durP1;ratioP1;P1;durP2;ratioP2;P2;SDS_P1;SDS_P2;PMS_P1;PMS_P2;Temp;Humidity;BMP_temperature;BMP_pressure;BME280_temperature;BME280_humidity;BME280_pressure;Samples;Min_cycle;Max_cycle;Signal;HPM_P1;HPM_P2
2022/06/19 00:02:21;;;;;;;10.55;4.50;;;21.70;71.00;;;;;;1841455;78;21119;-64
2022/06/19 00:04:52;;;;;;;19.80;4.87;;;21.70;71.30;;;;;;1841574;78;21021;-64
2022/06/19 00:07:22;;;;;;;8.93;4.58;;;21.60;71.50;;;;;;1841442;78;21042;-64
2022/06/19 00:09:51;;;;;;;6.72;4.78;;;21.50;71.40;;;;;;1841538;78;21046;-64
2022/06/19 00:12:20;;;;;;;6.67;4.78;;;21.40;71.60;;;;;;1841426;78;21022;-64
2022/06/19 00:14:50;;;;;;;5.05;4.42;;;21.30;72.00;;;;;;1841516;78;21457;-64
2022/06/19 00:17:19;;;;;;;8.93;4.62;;;21.20;72.40;;;;;;1841444;78;21022;-64
2022/06/19 00:19:48;;;;;;;9.38;4.40;;;21.20;72.60;;;;;;1841574;78;21041;-64
2022/06/19 00:22:18;;;;;;;11.03;4.50;;;21.20;72.60;;;;;;1841548;78;21046;-64
2022/06/19 00:24:47;;;;;;;6.83;5.33;;;21.20;72.70;;;;;;1841380;78;21116;-65
2022/06/19 00:27:16;;;;;;;6.55;5.12;;;21.20;72.70;;;;;;1841397;77;21116;-64
2022/06/19 00:29:46;;;;;;;8.33;4.90;;;21.30;72.50;;;;;;1853726;77;21069;-64
2022/06/19 00:32:15;;;;;;;6.30;4.67;;;21.30;72.50;;;;;;1853563;77;21135;-64
2022/06/19 00:34:45;;;;;;;7.37;4.37;;;21.30;72.40;;;;;;1853558;77;21053;-65
2022/06/19 00:37:14;;;;;;;7.83;4.72;;;21.30;72.60;;;;;;1853682;77;21045;-64
2022/06/19 00:39:43;;;;;;;6.10;3.90;;;21.30;72.70;;;;;;1853521;77;21112;-64
2022/06/19 00:42:14;;;;;;;5.65;4.70;;;21.30;72.70;;;;;;1853588;77;21107;-64
2022/06/19 00:44:44;;;;;;;6.22;4.55;;;21.30;72.70;;;;;;1853544;77;21080;-64
2022/06/19 00:47:24;;;;;;;7.12;4.53;;;21.30;72.80;;;;;;1853529;77;21068;-64
2022/06/19 00:50:15;;;;;;;6.17;4.30;;;21.20;72.70;;;;;;1853664;77;21215;-64
2022/06/19 00:52:44;;;;;;;5.62;4.47;;;21.20;72.70;;;;;;1853614;77;21041;-64
2022/06/19 00:55:16;;;;;;;8.03;5.05;;;21.10;72.90;;;;;;1853618;77;21142;-64
2022/06/19 00:57:51;;;;;;;6.67;5.15;;;21.00;73.40;;;;;;1852803;77;21511;-65
2022/06/19 01:00:30;;;;;;;7.72;4.72;;;21.00;73.60;;;;;;1853575;77;21084;-65
2022/06/19 01:03:14;;;;;;;6.47;5.30;;;21.00;73.30;;;;;;1853683;77;21056;-64
2022/06/19 01:05:46;;;;;;;5.42;4.85;;;20.90;73.60;;;;;;1852897;77;21092;-64
2022/06/19 01:08:16;;;;;;;5.53;4.53;;;20.90;73.90;;;;;;1853725;77;21029;-64
2022/06/19 01:10:48;;;;;;;8.25;5.30;;;20.90;73.90;;;;;;1853618;77;21061;-64
2022/06/19 01:13:19;;;;;;;8.78;5.28;;;21.00;73.90;;;;;;1853715;77;21017;-64
2022/06/19 01:15:49;;;;;;;7.72;4.67;;;21.00;73.80;;;;;;1853749;77;21534;-64
2022/06/19 01:18:20;;;;;;;6.25;4.45;;;21.00;73.90;;;;;;1853688;77;21123;-64
2022/06/19 01:20:51;;;;;;;8.68;5.12;;;21.00;73.80;;;;;;1853670;77;21045;-64
2022/06/19 01:23:29;;;;;;;7.87;5.33;;;21.00;73.70;;;;;;1853603;77;21036;-64
2022/06/19 01:25:59;;;;;;;8.38;6.62;;;21.00;73.60;;;;;;1852687;77;21089;-64
2022/06/19 01:28:46;;;;;;;11.78;6.85;;;20.90;73.40;;;;;;1850659;77;21082;-64
2022/06/19 01:31:21;;;;;;;8.23;5.47;;;20.80;73.40;;;;;;1841558;78;21074;-64
2022/06/19 01:33:56;;;;;;;10.58;5.45;;;20.70;73.90;;;;;;1841723;78;21543;-65
2022/06/19 01:36:29;;;;;;;9.45;5.97;;;20.70;74.10;;;;;;1856898;76;21088;-64
2022/06/19 01:39:00;;;;;;;12.47;6.20;;;20.70;74.00;;;;;;1893607;75;21049;-64
2022/06/19 01:41:34;;;;;;;7.97;6.08;;;20.70;73.70;;;;;;1893635;74;21009;-65
2022/06/19 01:44:05;;;;;;;9.63;5.90;;;20.60;73.80;;;;;;1893742;74;21136;-64
2022/06/19 01:46:34;;;;;;;8.45;5.70;;;20.40;74.00;;;;;;1893560;76;21215;-64
2022/06/19 01:49:03;;;;;;;9.05;5.53;;;20.40;74.50;;;;;;1893447;76;21013;-64
2022/06/19 01:51:33;;;;;;;8.73;5.70;;;20.40;74.80;;;;;;1893547;74;21037;-65
2022/06/19 01:54:06;;;;;;;9.38;5.25;;;20.40;74.80;;;;;;1893611;74;21045;-64
2022/06/19 01:56:36;;;;;;;10.72;5.70;;;20.50;74.60;;;;;;1891840;74;21037;-65
2022/06/19 01:59:08;;;;;;;8.65;4.90;;;20.50;74.80;;;;;;1893426;74;21106;-64
2022/06/19 02:01:38;;;;;;;8.90;5.90;;;20.60;74.60;;;;;;1893593;76;21233;-65
2022/06/19 02:04:08;;;;;;;10.35;5.30;;;20.50;73.90;;;;;;1893588;74;21008;-65
2022/06/19 02:06:47;;;;;;;7.42;5.25;;;20.50;74.40;;;;;;1893561;75;21091;-64
2022/06/19 02:09:19;;;;;;;8.05;5.12;;;20.50;74.80;;;;;;1893522;74;21432;-64
2022/06/19 02:11:48;;;;;;;10.25;5.40;;;20.50;74.80;;;;;;1893468;75;21052;-64
2022/06/19 02:14:20;;;;;;;9.33;6.08;;;20.50;74.80;;;;;;1893510;75;21036;-64
2022/06/19 02:16:50;;;;;;;13.48;6.67;;;20.50;74.80;;;;;;1893521;75;21004;-64
2022/06/19 02:19:20;;;;;;;9.45;6.33;;;20.60;74.30;;;;;;1893556;75;21037;-65
2022/06/19 02:21:56;;;;;;;9.03;6.22;;;20.60;74.10;;;;;;1893682;74;21108;-64
2022/06/19 02:24:24;;;;;;;13.58;6.92;;;20.60;73.70;;;;;;1892593;74;21805;-64
2022/06/19 02:26:55;;;;;;;9.38;6.00;;;20.60;73.50;;;;;;1893640;75;21122;-64
2022/06/19 02:29:24;;;;;;;9.43;5.85;;;20.50;73.60;;;;;;1893437;74;21521;-64
2022/06/19 02:31:55;;;;;;;9.50;5.78;;;20.50;74.00;;;;;;1893480;76;21022;-64
2022/06/19 02:34:33;;;;;;;7.70;5.55;;;20.50;74.30;;;;;;1893670;75;21061;-64
2022/06/19 02:37:05;;;;;;;6.95;5.30;;;20.50;74.30;;;;;;1905131;74;21087;-64
2022/06/19 02:39:53;;;;;;;9.28;5.67;;;20.50;74.20;;;;;;1906371;74;21028;-64
2022/06/19 02:42:26;;;;;;;11.85;5.67;;;20.50;74.50;;;;;;1906284;74;21076;-64
2022/06/19 02:45:01;;;;;;;9.93;5.92;;;20.50;74.70;;;;;;1906177;74;21052;-64
2022/06/19 02:47:31;;;;;;;;;;;20.50;74.60;;;;;;1908864;75;21110;-64
2022/06/19 02:50:00;;;;;;;5.50;4.53;;;20.70;74.60;;;;;;1906271;74;20135;-64
2022/06/19 02:52:29;;;;;;;6.62;4.92;;;20.70;74.20;;;;;;1906287;75;21103;-64
2022/06/19 02:55:02;;;;;;;9.33;6.00;;;20.80;73.90;;;;;;1906337;75;21099;-64
2022/06/19 02:57:32;;;;;;;6.72;5.05;;;20.80;74.10;;;;;;1906374;75;21080;-64
2022/06/19 03:00:01;;;;;;;7.37;5.10;;;20.70;74.30;;;;;;1906348;74;21029;-64
2022/06/19 03:02:31;;;;;;;8.03;4.53;;;20.70;74.40;;;;;;1906485;75;21028;-64
2022/06/19 03:05:03;;;;;;;5.55;4.67;;;20.80;74.80;;;;;;1906486;75;21118;-64
2022/06/19 03:07:33;;;;;;;10.55;5.85;;;20.80;75.40;;;;;;1906233;74;21087;-64
2022/06/19 03:10:03;;;;;;;9.90;5.35;;;20.90;74.60;;;;;;1906268;75;21032;-64
2022/06/19 03:12:32;;;;;;;7.30;5.30;;;21.00;74.40;;;;;;1906374;75;21080;-64
2022/06/19 03:15:02;;;;;;;8.25;5.03;;;21.20;74.20;;;;;;1906274;74;21084;-64
2022/06/19 03:17:31;;;;;;;10.85;5.42;;;21.20;73.90;;;;;;1906388;74;21102;-64
2022/06/19 03:20:00;;;;;;;12.03;5.67;;;21.30;73.70;;;;;;1906166;74;21463;-64
2022/06/19 03:22:30;;;;;;;8.73;5.08;;;21.40;73.50;;;;;;1906255;74;21110;-64
2022/06/19 03:25:00;;;;;;;10.50;5.30;;;21.40;73.30;;;;;;1906178;74;20993;-64
2022/06/19 03:27:29;;;;;;;8.15;4.62;;;21.50;73.20;;;;;;1906217;75;21098;-64
2022/06/19 03:29:58;;;;;;;11.40;5.72;;;21.50;73.30;;;;;;1906218;75;21032;-64
2022/06/19 03:32:27;;;;;;;10.65;5.15;;;21.70;73.20;;;;;;1906180;74;21102;-65
2022/06/19 03:34:57;;;;;;;9.63;5.12;;;21.80;72.90;;;;;;1906217;75;21032;-64
2022/06/19 03:37:27;;;;;;;10.95;4.67;;;22.00;72.60;;;;;;1895962;75;21069;-64
2022/06/19 03:39:56;;;;;;;11.30;5.35;;;22.10;72.30;;;;;;1893696;75;21091;-65
2022/06/19 03:42:25;;;;;;;10.85;5.85;;;22.30;72.20;;;;;;1893820;75;21033;-64
2022/06/19 03:44:55;;;;;;;7.72;5.08;;;22.40;72.00;;;;;;1893681;74;21053;-64
2022/06/19 03:47:25;;;;;;;8.43;5.10;;;22.50;71.70;;;;;;1893810;75;21025;-64
2022/06/19 03:49:55;;;;;;;8.95;4.95;;;22.60;71.60;;;;;;1893687;75;21037;-64
2022/06/19 03:52:24;;;;;;;9.88;5.60;;;22.70;71.30;;;;;;1893766;76;21029;-64
2022/06/19 03:54:53;;;;;;;7.10;4.60;;;22.80;70.90;;;;;;1893780;75;21068;-64
2022/06/19 03:57:22;;;;;;;9.43;5.17;;;22.80;70.60;;;;;;1893778;76;21064;-64
2022/06/19 03:59:52;;;;;;;7.80;5.08;;;22.90;70.40;;;;;;1893773;75;21103;-64
2022/06/19 04:02:22;;;;;;;7.83;4.67;;;22.80;70.10;;;;;;1893755;74;21005;-64
2022/06/19 04:04:51;;;;;;;8.25;4.72;;;22.80;70.20;;;;;;1893805;75;21033;-64
2022/06/19 04:07:20;;;;;;;15.18;5.30;;;22.80;70.20;;;;;;1893784;75;21037;-64
2022/06/19 04:09:50;;;;;;;5.97;4.25;;;22.80;70.30;;;;;;1893740;74;21131;-64
2022/06/19 04:12:19;;;;;;;10.53;4.75;;;22.70;70.50;;;;;;1893704;75;21068;-64
2022/06/19 04:14:50;;;;;;;5.53;4.42;;;22.60;70.80;;;;;;1893668;75;21114;-65
2022/06/19 04:17:20;;;;;;;5.92;4.40;;;22.70;71.10;;;;;;1893848;76;21107;-65
2022/06/19 04:19:49;;;;;;;5.10;4.25;;;22.90;71.30;;;;;;1893666;74;21107;-64
2022/06/19 04:22:18;;;;;;;14.05;4.72;;;23.00;71.00;;;;;;1893698;74;21029;-64
2022/06/19 04:24:48;;;;;;;8.58;5.08;;;23.20;70.70;;;;;;1893658;75;21037;-64
2022/06/19 04:27:17;;;;;;;8.78;5.00;;;23.40;70.40;;;;;;1893634;75;21009;-64
2022/06/19 04:29:47;;;;;;;7.12;4.22;;;23.60;70.10;;;;;;1893738;75;21057;-64
2022/06/19 04:32:16;;;;;;;9.05;5.03;;;23.80;69.70;;;;;;1893754;74;21024;-64
2022/06/19 04:34:46;;;;;;;9.40;7.03;;;23.90;69.20;;;;;;1893766;75;21396;-64
2022/06/19 04:37:15;;;;;;;12.63;7.12;;;24.00;68.90;;;;;;1899760;74;21064;-64
2022/06/19 04:39:44;;;;;;;11.93;6.92;;;24.10;68.70;;;;;;1906177;75;21110;-64
2022/06/19 04:42:14;;;;;;;13.40;7.70;;;24.10;68.90;;;;;;1906299;74;21126;-65
2022/06/19 04:44:43;;;;;;;13.45;7.58;;;24.20;69.10;;;;;;1906287;74;21145;-65
2022/06/19 04:47:12;;;;;;;7.45;6.05;;;24.10;68.90;;;;;;1906272;74;21028;-65
2022/06/19 04:49:42;;;;;;;8.60;4.83;;;24.10;69.00;;;;;;1906236;74;21118;-65
2022/06/19 04:52:12;;;;;;;6.10;4.62;;;24.10;68.80;;;;;;1906238;74;21028;-65
2022/06/19 04:54:42;;;;;;;4.90;4.40;;;24.10;68.50;;;;;;1906277;74;21036;-65
2022/06/19 04:57:11;;;;;;;9.70;4.00;;;24.10;68.50;;;;;;1906212;75;21098;-65
2022/06/19 04:59:40;;;;;;;7.72;4.30;;;24.10;68.50;;;;;;1906125;74;21021;-65
2022/06/19 05:02:14;;;;;;;7.85;4.58;;;24.10;67.90;;;;;;1906109;74;21082;-65
2022/06/19 05:04:43;;;;;;;6.80;4.20;;;24.10;67.70;;;;;;1906271;74;21071;-65
2022/06/19 05:07:13;;;;;;;8.70;5.08;;;24.20;67.20;;;;;;1906251;75;21032;-65
2022/06/19 05:09:42;;;;;;;14.18;7.55;;;24.30;66.90;;;;;;1906111;74;21026;-65
2022/06/19 05:12:12;;;;;;;9.08;5.40;;;24.50;66.60;;;;;;1906223;75;21048;-67
2022/06/19 05:14:41;;;;;;;7.25;4.58;;;24.60;66.20;;;;;;1905940;74;21083;-66
2022/06/19 05:17:11;;;;;;;10.55;6.87;;;24.70;66.10;;;;;;1906133;74;21032;-65
2022/06/19 05:19:44;;;;;;;10.58;6.15;;;24.70;66.00;;;;;;1906056;75;21098;-66
2022/06/19 05:22:13;;;;;;;6.50;4.70;;;24.80;65.10;;;;;;1906022;75;21032;-65
2022/06/19 05:24:43;;;;;;;6.28;4.60;;;24.80;65.30;;;;;;1906122;74;21090;-65
2022/06/19 05:27:12;;;;;;;9.90;5.55;;;24.90;65.60;;;;;;1906084;74;21110;-65
2022/06/19 05:29:42;;;;;;;5.40;4.87;;;25.00;65.40;;;;;;1906158;74;21040;-64
2022/06/19 05:32:11;;;;;;;5.03;4.40;;;25.00;65.30;;;;;;1906205;75;21028;-64
2022/06/19 05:34:41;;;;;;;6.75;4.22;;;25.00;64.30;;;;;;1906124;74;21118;-64
2022/06/19 05:37:10;;;;;;;6.67;3.92;;;25.00;64.50;;;;;;1903070;74;21061;-64
2022/06/19 05:39:40;;;;;;;4.40;4.00;;;25.10;64.60;;;;;;1893254;74;21029;-64
2022/06/19 05:42:09;;;;;;;21.75;8.30;;;25.20;64.20;;;;;;1893416;75;21037;-64
2022/06/19 05:44:39;;;;;;;8.15;4.42;;;25.30;64.30;;;;;;1893348;76;21025;-65
2022/06/19 05:47:08;;;;;;;8.63;4.28;;;25.30;64.00;;;;;;1893441;75;21554;-64
2022/06/19 05:49:38;;;;;;;10.05;4.97;;;25.30;62.90;;;;;;1893501;75;21092;-65
2022/06/19 05:52:24;;;;;;;6.25;4.70;;;25.30;62.90;;;;;;1893419;75;21106;-64
2022/06/19 05:54:54;;;;;;;6.08;3.77;;;25.20;63.30;;;;;;1893428;75;21056;-65
2022/06/19 05:57:23;;;;;;;10.45;3.70;;;25.20;63.60;;;;;;1893533;74;21106;-65
2022/06/19 05:59:54;;;;;;;7.15;3.98;;;25.20;62.80;;;;;;1893479;74;21111;-65
2022/06/19 06:02:23;;;;;;;6.28;3.60;;;25.20;62.90;;;;;;1893518;74;21118;-65
2022/06/19 06:04:52;;;;;;;4.42;3.65;;;25.20;63.00;;;;;;1893438;76;21028;-65
2022/06/19 06:07:22;;;;;;;5.87;4.00;;;25.30;62.90;;;;;;1893483;74;21477;-65
2022/06/19 06:09:51;;;;;;;5.78;3.90;;;25.30;63.10;;;;;;1893502;75;21162;-65
2022/06/19 06:12:21;;;;;;;5.58;3.70;;;25.30;62.70;;;;;;1893394;75;21026;-65
2022/06/19 06:14:51;;;;;;;5.80;3.62;;;25.30;62.70;;;;;;1893589;75;21053;-65
2022/06/19 06:17:23;;;;;;;6.95;3.83;;;25.30;62.10;;;;;;1893401;75;21029;-65
2022/06/19 06:19:51;;;;;;;4.85;3.45;;;25.40;61.30;;;;;;1893475;76;21056;-65
2022/06/19 06:22:21;;;;;;;5.53;3.55;;;25.40;61.10;;;;;;1893492;76;21040;-65
2022/06/19 06:24:50;;;;;;;6.35;2.85;;;25.50;60.20;;;;;;1893497;75;21024;-65
2022/06/19 06:27:19;;;;;;;6.90;4.12;;;25.50;59.70;;;;;;1893451;74;21521;-65
2022/06/19 06:29:48;;;;;;;10.95;3.40;;;25.60;59.80;;;;;;1893515;75;21103;-65
2022/06/19 06:32:18;;;;;;;4.75;3.20;;;25.70;59.10;;;;;;1893374;75;21005;-65
2022/06/19 06:34:47;;;;;;;10.58;3.33;;;25.80;58.70;;;;;;1893393;74;21040;-65
2022/06/19 06:37:17;;;;;;;8.33;3.62;;;25.80;58.80;;;;;;1893418;75;21013;-64
2022/06/19 06:39:46;;;;;;;3.20;2.90;;;25.90;59.30;;;;;;1893424;75;21146;-66
2022/06/19 06:42:15;;;;;;;3.55;2.67;;;26.00;59.50;;;;;;1893500;75;21084;-65
2022/06/19 06:44:45;;;;;;;4.65;3.85;;;26.20;59.70;;;;;;1893571;75;21121;-65
2022/06/19 06:47:14;;;;;;;8.35;3.52;;;26.30;59.80;;;;;;1893348;74;21009;-65
2022/06/19 06:49:43;;;;;;;5.37;3.20;;;26.40;59.90;;;;;;1893513;76;21103;-65
2022/06/19 06:52:13;;;;;;;7.05;3.40;;;26.50;59.80;;;;;;1893459;76;21069;-65
2022/06/19 06:54:43;;;;;;;9.10;4.70;;;26.50;60.10;;;;;;1893376;74;21037;-65
2022/06/19 06:57:12;;;;;;;9.58;3.40;;;26.50;60.50;;;;;;1893358;76;21033;-66
2022/06/19 06:59:41;;;;;;;4.85;3.05;;;26.60;60.70;;;;;;1893484;75;21041;-66
2022/06/19 07:02:12;;;;;;;3.92;2.92;;;26.60;60.70;;;;;;1893462;76;21028;-65
2022/06/19 07:04:41;;;;;;;14.28;3.50;;;26.70;60.10;;;;;;1893412;75;21053;-66
2022/06/19 07:07:11;;;;;;;5.85;2.95;;;26.80;59.50;;;;;;1893441;75;21098;-66
2022/06/19 07:09:40;;;;;;;9.03;3.00;;;26.80;58.10;;;;;;1893500;76;21033;-66
2022/06/19 07:12:11;;;;;;;3.87;2.90;;;26.80;58.20;;;;;;1893440;74;21094;-66
2022/06/19 07:14:40;;;;;;;8.20;3.12;;;26.80;57.70;;;;;;1893523;74;21057;-66
2022/06/19 07:17:10;;;;;;;33.05;8.15;;;26.80;57.90;;;;;;1893407;75;21106;-65
2022/06/19 07:19:39;;;;;;;7.40;2.77;;;26.80;57.20;;;;;;1893301;74;21111;-66
2022/06/19 07:22:11;;;;;;;4.08;2.67;;;26.70;56.50;;;;;;1893406;75;21107;-66
2022/06/19 07:24:41;;;;;;;4.50;2.87;;;26.60;56.90;;;;;;1893472;74;21069;-66
2022/06/19 07:27:11;;;;;;;5.58;2.62;;;26.60;56.90;;;;;;1893365;76;21009;-65
2022/06/19 07:29:44;;;;;;;5.33;3.20;;;26.70;56.60;;;;;;1893360;76;21110;-66
2022/06/19 07:32:14;;;;;;;4.55;3.33;;;26.70;55.40;;;;;;1893639;74;21040;-66
2022/06/19 07:34:44;;;;;;;4.20;2.85;;;26.80;55.40;;;;;;1893607;76;21112;-66
2022/06/19 07:37:15;;;;;;;4.90;2.92;;;26.90;55.30;;;;;;1893335;76;21091;-66
2022/06/19 07:39:44;;;;;;;4.25;3.10;;;26.90;55.30;;;;;;1893374;75;21072;-65
2022/06/19 07:42:14;;;;;;;7.12;2.83;;;27.00;54.80;;;;;;1893416;76;21037;-66
2022/06/19 07:44:43;;;;;;;4.42;3.45;;;26.90;54.50;;;;;;1893434;75;21001;-66
2022/06/19 07:50:17;;;;;;;4.95;3.00;;;26.90;55.10;;;;;;1893487;75;21116;-66
2022/06/19 07:52:48;;;;;;;3.70;2.55;;;27.10;55.00;;;;;;1892141;76;21029;-66
2022/06/19 07:55:20;;;;;;;6.30;3.42;;;27.30;54.70;;;;;;1893311;74;21020;-65
2022/06/19 07:57:49;;;;;;;4.42;2.83;;;27.50;54.00;;;;;;1893451;75;21033;-65
2022/06/19 08:00:24;;;;;;;2.98;2.67;;;27.60;53.50;;;;;;1893509;75;21032;-66
2022/06/19 08:02:53;;;;;;;;;;;27.50;52.90;;;;;;1894997;75;21503;-66
2022/06/19 08:05:25;;;;;;;7.60;3.37;;;27.50;53.20;;;;;;1893483;75;20139;-66
2022/06/19 08:07:54;;;;;;;6.30;3.00;;;27.50;53.10;;;;;;1893290;75;21037;-66
2022/06/19 08:10:26;;;;;;;5.60;3.65;;;27.40;53.00;;;;;;1893304;75;21037;-66
2022/06/19 08:12:56;;;;;;;2.92;2.70;;;27.50;53.30;;;;;;1893424;74;21049;-65
2022/06/19 08:15:25;;;;;;;4.03;3.15;;;27.60;53.60;;;;;;1893513;76;21099;-65
2022/06/19 08:17:55;;;;;;;29.48;5.80;;;27.70;52.80;;;;;;1893268;76;21029;-66
2022/06/19 08:20:25;;;;;;;6.50;3.00;;;27.70;51.90;;;;;;1893248;74;21040;-65
2022/06/19 08:22:55;;;;;;;4.25;2.87;;;27.70;52.20;;;;;;1893247;75;21037;-65
2022/06/19 08:25:25;;;;;;;3.75;2.70;;;27.70;52.00;;;;;;1893545;76;21033;-65
2022/06/19 08:27:54;;;;;;;5.47;2.98;;;27.70;51.10;;;;;;1893347;75;21483;-65
2022/06/19 08:30:26;;;;;;;3.20;2.60;;;27.70;50.30;;;;;;1893325;76;20993;-65
2022/06/19 08:32:56;;;;;;;5.12;3.00;;;27.70;50.50;;;;;;1893347;74;21072;-66
2022/06/19 08:35:25;;;;;;;3.70;3.20;;;27.60;50.90;;;;;;1893364;75;21027;-65
2022/06/19 08:37:57;;;;;;;6.87;3.65;;;27.70;50.70;;;;;;1893467;74;21048;-65
2022/06/19 08:40:31;;;;;;;4.55;2.80;;;27.70;49.80;;;;;;1903825;75;21530;-66
2022/06/19 08:43:04;;;;;;;6.30;3.60;;;27.80;49.80;;;;;;1903850;75;21212;-65
2022/06/19 08:45:39;;;;;;;2.65;2.45;;;28.00;49.10;;;;;;1905258;75;21024;-65
2022/06/19 08:48:20;;;;;;;8.10;2.70;;;28.10;47.80;;;;;;1905901;75;21028;-66
2022/06/19 08:50:58;;;;;;;4.70;2.50;;;28.10;47.00;;;;;;1905627;75;21110;-65
2022/06/19 08:53:47;;;;;;;3.72;2.42;;;28.20;46.90;;;;;;1906164;74;21103;-65
2022/06/19 08:56:27;;;;;;;2.70;2.25;;;28.30;45.50;;;;;;1904950;74;21514;-66
2022/06/19 08:59:00;;;;;;;4.35;2.50;;;28.40;44.80;;;;;;1906242;74;21134;-66
2022/06/19 09:01:34;;;;;;;6.75;2.52;;;28.30;45.90;;;;;;1906014;75;21114;-66
2022/06/19 09:07:21;;;;;;;5.22;2.37;;;28.40;45.00;;;;;;1906087;75;20158;-66
2022/06/19 09:09:52;;;;;;;3.45;2.20;;;28.40;45.10;;;;;;1904926;74;21035;-66
2022/06/19 09:12:33;;;;;;;5.25;3.00;;;28.50;44.40;;;;;;1904726;75;21056;-66
2022/06/19 09:15:14;;;;;;;3.67;2.22;;;28.50;44.00;;;;;;1905590;75;21525;-66
2022/06/19 09:18:00;;;;;;;2.85;2.33;;;28.50;43.80;;;;;;1906065;74;21082;-66
2022/06/19 09:20:44;;;;;;;3.98;2.25;;;28.50;43.80;;;;;;1906173;74;21048;-66
2022/06/19 09:23:25;;;;;;;8.78;3.12;;;28.60;44.10;;;;;;1905101;74;21173;-66
2022/06/19 09:26:08;;;;;;;4.03;3.10;;;28.70;44.30;;;;;;1905275;75;21499;-66
2022/06/19 09:28:42;;;;;;;3.40;2.45;;;28.90;44.30;;;;;;1906165;74;21084;-66
2022/06/19 09:31:32;;;;;;;4.37;2.25;;;29.10;43.40;;;;;;1906208;74;21103;-66
2022/06/19 09:34:16;;;;;;;5.42;2.40;;;29.10;42.30;;;;;;1905439;75;21139;-66
2022/06/19 09:37:00;;;;;;;3.50;2.72;;;29.10;42.60;;;;;;1906279;74;21032;-66
2022/06/19 09:39:48;;;;;;;4.08;3.08;;;29.10;42.60;;;;;;1906352;74;21044;-66
2022/06/19 09:42:21;;;;;;;3.47;2.55;;;29.10;42.80;;;;;;1906468;75;21052;-66
2022/06/19 09:44:52;;;;;;;2.70;2.33;;;29.10;43.20;;;;;;1906304;75;21020;-66
2022/06/19 09:47:40;;;;;;;7.40;2.98;;;29.10;43.60;;;;;;1890468;75;21028;-66
2022/06/19 09:50:17;;;;;;;4.47;2.37;;;29.10;43.60;;;;;;1906318;74;21009;-66
2022/06/19 09:52:58;;;;;;;5.15;2.50;;;29.10;43.60;;;;;;1906032;75;21149;-66
2022/06/19 09:55:33;;;;;;;3.20;2.52;;;29.00;44.20;;;;;;1876525;75;21040;-66
2022/06/19 09:58:09;;;;;;;;;;;29.00;43.60;;;;;;1909111;74;21461;-66
2022/06/19 10:00:40;;;;;;;4.83;2.30;;;29.00;41.60;;;;;;1906338;74;20126;-66
2022/06/19 10:03:16;;;;;;;4.00;2.62;;;29.00;43.30;;;;;;1906166;74;21471;-66
2022/06/19 10:05:54;;;;;;;3.62;2.62;;;29.00;41.50;;;;;;1906263;75;21533;-66
2022/06/19 10:08:25;;;;;;;4.08;2.83;;;28.90;42.00;;;;;;1906454;75;21607;-66
2022/06/19 10:11:06;;;;;;;3.65;2.30;;;28.90;42.60;;;;;;1906223;74;21467;-66
2022/06/19 10:13:59;;;;;;;4.95;2.50;;;28.90;42.40;;;;;;1906303;75;21036;-66
2022/06/19 10:16:58;;;;;;;2.20;1.90;;;28.90;42.20;;;;;;1906122;74;21028;-66
2022/06/19 10:19:35;;;;;;;2.42;2.22;;;29.00;41.20;;;;;;1812599;75;21059;-63
2022/06/19 10:22:29;;;;;;;6.20;3.17;;;29.10;42.10;;;;;;1905584;74;21092;-66
2022/06/19 10:25:22;;;;;;;4.53;2.60;;;29.20;41.90;;;;;;1905583;75;21032;-66
2022/06/19 10:28:06;;;;;;;2.85;2.20;;;29.10;41.60;;;;;;1905884;75;21110;-66
2022/06/19 10:31:11;;;;;;;3.15;2.05;;;29.10;41.80;;;;;;1906418;75;21020;-66
2022/06/19 10:34:00;;;;;;;4.85;2.52;;;29.10;42.20;;;;;;1906344;74;21037;-66
2022/06/19 10:36:44;;;;;;;2.55;2.22;;;29.10;41.90;;;;;;1906263;74;21100;-66
2022/06/19 10:39:29;;;;;;;3.58;2.25;;;29.20;42.40;;;;;;1906086;75;21044;-66
2022/06/19 10:42:10;;;;;;;4.35;3.20;;;29.30;41.00;;;;;;1906346;74;21123;-66
2022/06/19 10:44:42;;;;;;;5.03;2.45;;;29.30;41.20;;;;;;1903686;75;21029;-66
2022/06/19 10:47:31;;;;;;;5.92;2.87;;;29.40;40.40;;;;;;1904211;75;21498;-66
2022/06/19 10:50:18;;;;;;;9.38;2.22;;;29.50;40.50;;;;;;1906354;75;21111;-66
2022/06/19 10:52:53;;;;;;;4.28;2.30;;;29.70;40.70;;;;;;1905621;74;21096;-66
2022/06/19 10:55:37;;;;;;;2.83;2.08;;;29.90;40.30;;;;;;1906372;75;21028;-66
2022/06/19 10:58:18;;;;;;;6.45;3.08;;;30.00;39.10;;;;;;1906005;75;21075;-66
2022/06/19 11:00:53;;;;;;;2.62;2.22;;;29.90;39.40;;;;;;1906183;74;21114;-66
2022/06/19 11:06:32;;;;;;;2.98;2.10;;;30.00;39.30;;;;;;1906285;75;21068;-66
2022/06/19 11:09:04;;;;;;;3.20;1.90;;;30.10;39.60;;;;;;1906205;75;21001;-65
2022/06/19 11:11:36;;;;;;;2.08;1.82;;;30.10;38.60;;;;;;1906293;74;21045;-66
2022/06/19 11:14:08;;;;;;;5.30;2.10;;;30.20;38.00;;;;;;1906199;74;21103;-66
2022/06/19 11:16:59;;;;;;;2.22;1.98;;;30.30;37.90;;;;;;1906190;75;21008;-66
2022/06/19 11:19:46;;;;;;;2.75;2.00;;;30.30;37.00;;;;;;1906061;74;21024;-66
2022/06/19 11:22:48;;;;;;;3.42;1.85;;;30.20;37.30;;;;;;1906020;74;21033;-67
2022/06/19 11:25:26;;;;;;;1.50;1.40;;;30.20;37.80;;;;;;1766511;80;21084;-67
2022/06/19 11:28:06;;;;;;;11.25;2.52;;;30.20;36.70;;;;;;1781713;80;21033;-67
2022/06/19 11:30:38;;;;;;;4.75;2.40;;;30.10;37.20;;;;;;1781523;80;21123;-67
2022/06/19 11:33:16;;;;;;;2.77;2.02;;;30.10;37.70;;;;;;1781894;80;21589;-66
2022/06/19 11:35:51;;;;;;;6.92;2.30;;;30.20;37.60;;;;;;1781141;80;21037;-66
2022/06/19 11:38:23;;;;;;;2.20;2.00;;;30.20;37.40;;;;;;1781851;80;21586;-66
2022/06/19 11:40:52;;;;;;;3.67;2.50;;;30.30;37.20;;;;;;1780227;79;21064;-66
2022/06/19 11:43:30;;;;;;;3.08;2.22;;;30.30;37.50;;;;;;1781830;80;21134;-66
2022/06/19 11:46:02;;;;;;;3.12;1.87;;;30.40;37.50;;;;;;1781953;80;21545;-66
2022/06/19 11:48:32;;;;;;;2.83;2.33;;;30.40;37.10;;;;;;1781832;80;21134;-66
2022/06/19 11:51:01;;;;;;;4.17;2.35;;;30.30;37.70;;;;;;1782003;80;21071;-66
2022/06/19 11:53:39;;;;;;;3.15;2.20;;;30.30;38.00;;;;;;1781870;80;21127;-66
2022/06/19 11:56:20;;;;;;;3.58;1.75;;;30.20;38.30;;;;;;1781864;80;21165;-66
2022/06/19 11:58:54;;;;;;;3.12;2.15;;;30.20;38.70;;;;;;1781800;80;21612;-65
2022/06/19 12:01:25;;;;;;;3.35;1.87;;;30.10;38.90;;;;;;1773592;80;21119;-65
2022/06/19 12:03:59;;;;;;;6.03;2.33;;;30.00;38.70;;;;;;1780507;80;21105;-66
2022/06/19 12:06:40;;;;;;;4.35;1.80;;;29.90;38.70;;;;;;1781918;79;21147;-66
2022/06/19 12:09:12;;;;;;;9.88;4.20;;;29.80;39.30;;;;;;1781936;80;21145;-66
2022/06/19 12:11:47;;;;;;;9.15;3.27;;;29.70;39.60;;;;;;1769253;79;21530;-67
2022/06/19 12:14:19;;;;;;;6.03;2.40;;;29.70;39.40;;;;;;1781884;80;21503;-66
2022/06/19 12:16:49;;;;;;;5.03;2.02;;;29.60;39.50;;;;;;1780651;80;21531;-67
2022/06/19 12:19:30;;;;;;;2.75;2.08;;;29.60;39.80;;;;;;1781747;80;21134;-66
2022/06/19 12:22:02;;;;;;;2.37;2.17;;;29.50;39.70;;;;;;1850652;76;21166;-66
2022/06/19 12:24:40;;;;;;;5.15;2.17;;;29.40;39.90;;;;;;1863349;77;21040;-66
2022/06/19 12:27:15;;;;;;;3.98;2.52;;;29.50;40.50;;;;;;1863358;77;21541;-66
2022/06/19 12:29:47;;;;;;;10.23;5.75;;;29.40;40.50;;;;;;1863425;76;21479;-66
2022/06/19 12:32:26;;;;;;;10.65;3.70;;;29.50;40.80;;;;;;1863507;76;21068;-66
2022/06/19 12:34:58;;;;;;;23.00;4.53;;;29.60;40.90;;;;;;1863292;76;21107;-67
2022/06/19 12:37:29;;;;;;;10.18;3.30;;;29.70;41.50;;;;;;1863365;76;21513;-67
2022/06/19 12:39:58;;;;;;;6.10;2.87;;;29.80;41.70;;;;;;1863323;76;21028;-68
2022/06/19 12:42:30;;;;;;;7.28;3.30;;;30.00;41.90;;;;;;1863241;76;21102;-67
2022/06/19 12:45:02;;;;;;;5.40;3.15;;;30.10;41.80;;;;;;1862743;76;21009;-66
2022/06/19 12:47:39;;;;;;;4.90;3.00;;;30.30;41.60;;;;;;1863205;77;21460;-67
2022/06/19 12:50:26;;;;;;;3.33;2.40;;;30.40;41.10;;;;;;1863255;76;21060;-67
2022/06/19 12:53:16;;;;;;;4.55;2.20;;;30.50;41.10;;;;;;1862305;77;21833;-67
2022/06/19 12:56:15;;;;;;;4.83;2.27;;;30.60;40.40;;;;;;1862378;76;21315;-67
2022/06/19 12:59:13;;;;;;;3.33;2.30;;;30.50;40.60;;;;;;1840300;77;21156;-67
2022/06/19 13:02:11;;;;;;;2.72;2.22;;;30.40;41.60;;;;;;1830358;77;21586;-67
2022/06/19 13:04:54;;;;;;;5.10;2.95;;;30.40;41.10;;;;;;1859749;77;21032;-66
2022/06/19 13:07:46;;;;;;;6.92;2.37;;;30.30;41.10;;;;;;1863495;76;21036;-66
2022/06/19 13:10:49;;;;;;;5.87;3.22;;;30.30;41.20;;;;;;1822074;77;21098;-66
2022/06/19 13:13:56;;;;;;;7.22;3.35;;;30.20;41.20;;;;;;1826759;78;21129;-66
2022/06/19 13:16:37;;;;;;;4.00;2.62;;;30.10;41.30;;;;;;1826679;77;21128;-66
2022/06/19 13:19:19;;;;;;;8.58;4.03;;;30.00;41.40;;;;;;1826761;77;21121;-66
2022/06/19 13:21:57;;;;;;;9.98;5.58;;;29.90;41.60;;;;;;1826785;78;21039;-66
2022/06/19 13:24:44;;;;;;;8.93;4.87;;;29.90;41.80;;;;;;1826411;77;21074;-66
2022/06/19 13:27:28;;;;;;;4.78;2.45;;;30.00;42.00;;;;;;1826795;77;21121;-66
2022/06/19 13:30:16;;;;;;;8.38;5.60;;;30.00;41.80;;;;;;1826839;77;21513;-66